createdAt,value
2019-03-28T00:02:01.616Z,69.60
2019-03-28T00:04:33.750Z,69.19
2019-03-28T00:07:05.711Z,69.30
2019-03-28T00:09:37.582Z,69.25
2019-03-28T00:12:09.525Z,68.92
2019-03-28T00:14:41.327Z,68.87
2019-03-28T00:17:13.129Z,68.92
2019-03-28T00:19:44.970Z,68.04
2019-03-28T00:22:27.308Z,68.12
2019-03-28T00:25:03.757Z,68.57
2019-03-28T00:27:35.673Z,68.36
2019-03-28T00:30:08.132Z,69.00
2019-03-28T00:32:39.929Z,68.48
2019-03-28T00:35:12.859Z,72.25
2019-03-28T00:37:44.733Z,70.73
2019-03-28T00:40:16.773Z,71.19
2019-03-28T00:42:48.586Z,70.34
2019-03-28T00:45:20.477Z,71.65
2019-03-28T00:47:52.457Z,71.62
2019-03-28T00:50:24.257Z,70.27
2019-03-28T00:52:56.133Z,70.43
2019-03-28T00:55:28.123Z,70.33
2019-03-28T00:57:59.899Z,68.75
2019-03-28T01:00:31.891Z,70.18
2019-03-28T01:03:03.826Z,69.51
2019-03-28T01:05:35.865Z,72.51
2019-03-28T01:08:07.979Z,71.92
2019-03-28T01:10:39.769Z,72.98
2019-03-28T01:13:11.581Z,73.59
2019-03-28T01:15:43.385Z,75.20
2019-03-28T01:18:15.246Z,72.02
2019-03-28T01:20:47.127Z,71.12
2019-03-28T01:23:18.992Z,74.24
2019-03-28T01:25:51.109Z,74.70
2019-03-28T01:28:23.961Z,75.71
2019-03-28T01:30:55.954Z,73.42
2019-03-28T01:33:27.751Z,71.25
2019-03-28T01:35:59.557Z,70.33
2019-03-28T01:38:31.348Z,70.38
2019-03-28T01:41:03.254Z,72.12
2019-03-28T01:43:35.205Z,71.32
2019-03-28T01:46:08.190Z,70.30
2019-03-28T01:48:40.185Z,73.61
2019-03-28T01:51:12.336Z,74.58
2019-03-28T01:53:44.306Z,71.56
2019-03-28T01:56:16.174Z,71.70
2019-03-28T01:58:48.122Z,71.12
2019-03-28T02:01:19.918Z,70.01
2019-03-28T02:03:51.961Z,69.86
2019-03-28T02:06:24.921Z,70.62
2019-03-28T02:08:56.895Z,71.37
2019-03-28T02:11:28.889Z,72.73
2019-03-28T02:14:00.704Z,70.70
2019-03-28T02:16:32.731Z,71.89
2019-03-28T02:19:05.779Z,72.95
2019-03-28T02:21:38.143Z,70.16
2019-03-28T02:24:09.981Z,71.00
2019-03-28T02:26:41.839Z,71.77
2019-03-28T02:29:13.731Z,75.65
2019-03-28T02:31:45.547Z,76.13
2019-03-28T02:34:17.345Z,72.49
2019-03-28T02:36:49.167Z,72.71
2019-03-28T02:39:21.028Z,74.33
2019-03-28T02:41:53.012Z,75.36
2019-03-28T02:44:24.958Z,74.79
2019-03-28T02:46:56.953Z,72.71
2019-03-28T02:49:28.716Z,72.16
2019-03-28T02:52:00.677Z,71.01
2019-03-28T02:54:32.485Z,71.38
2019-03-28T02:57:04.524Z,70.61
2019-03-28T02:59:36.332Z,71.57
2019-03-28T03:02:08.249Z,71.08
2019-03-28T03:04:40.215Z,71.00
2019-03-28T03:07:12.105Z,71.05
2019-03-28T03:09:43.882Z,70.91
2019-03-28T03:12:15.764Z,72.92
2019-03-28T03:14:47.587Z,73.53
2019-03-28T03:17:19.467Z,74.60
2019-03-28T03:19:51.874Z,71.32
2019-03-28T03:22:23.695Z,73.26
2019-03-28T03:24:55.627Z,71.93
2019-03-28T03:27:27.542Z,71.07
2019-03-28T03:29:59.518Z,70.60
2019-03-28T03:32:31.495Z,71.27
2019-03-28T03:35:03.384Z,71.86
2019-03-28T03:37:35.352Z,71.07
2019-03-28T03:40:08.865Z,71.60
2019-03-28T03:42:40.651Z,71.99
2019-03-28T03:45:12.799Z,70.90
2019-03-28T03:47:45.763Z,70.67
2019-03-28T03:50:28.432Z,70.77
2019-03-28T03:53:00.331Z,72.36
2019-03-28T03:55:32.237Z,70.95
2019-03-28T03:58:15.574Z,70.28
2019-03-28T04:00:39.181Z,71.08
2019-03-28T04:03:11.139Z,71.42
2019-03-28T04:05:43.086Z,71.57
2019-03-28T04:08:14.965Z,72.89
2019-03-28T04:10:46.829Z,72.03
2019-03-28T04:13:18.951Z,70.72
2019-03-28T04:15:51.016Z,70.55
2019-03-28T04:18:22.900Z,70.81
2019-03-28T04:20:54.701Z,71.70
2019-03-28T04:23:26.613Z,70.75
2019-03-28T04:25:58.417Z,69.51
2019-03-28T04:28:32.030Z,71.25
2019-03-28T04:31:03.864Z,73.12
2019-03-28T04:33:35.840Z,71.64
2019-03-28T04:36:07.917Z,71.36
2019-03-28T04:38:39.718Z,73.07
2019-03-28T04:41:11.579Z,71.32
2019-03-28T04:43:43.456Z,72.77
2019-03-28T04:46:16.214Z,73.02
2019-03-28T04:48:50.660Z,72.75
2019-03-28T04:51:21.792Z,72.99
2019-03-28T04:53:56.314Z,72.51
2019-03-28T04:56:27.512Z,72.96
2019-03-28T04:58:59.494Z,72.23
2019-03-28T05:01:31.347Z,71.65
2019-03-28T05:04:03.225Z,72.37
2019-03-28T05:06:37.872Z,71.29
2019-03-28T05:09:08.990Z,71.65
2019-03-28T05:11:40.867Z,72.01
2019-03-28T05:14:12.713Z,72.65
2019-03-28T05:16:44.537Z,70.94
2019-03-28T05:19:16.330Z,71.82
2019-03-28T05:21:48.381Z,70.79
2019-03-28T05:24:20.320Z,70.98
2019-03-28T05:26:52.573Z,70.16
2019-03-28T05:29:24.537Z,71.76
2019-03-28T05:31:56.619Z,70.59
2019-03-28T05:34:28.541Z,70.11
2019-03-28T05:37:00.439Z,69.80
2019-03-28T05:39:32.261Z,69.82
2019-03-28T05:42:04.347Z,69.10
2019-03-28T05:44:36.247Z,70.07
2019-03-28T05:47:08.188Z,70.92
2019-03-28T05:49:39.959Z,72.10
2019-03-28T05:52:11.919Z,70.77
2019-03-28T05:54:43.716Z,70.25
2019-03-28T05:57:15.579Z,70.97
2019-03-28T05:59:47.387Z,68.54
2019-03-28T06:02:19.287Z,70.60
2019-03-28T06:04:51.108Z,69.78
2019-03-28T06:07:22.891Z,70.08
2019-03-28T06:09:54.764Z,70.28
2019-03-28T06:12:26.644Z,71.15
2019-03-28T06:14:58.531Z,70.41
2019-03-28T06:17:30.411Z,69.46
2019-03-28T06:20:02.311Z,72.62
2019-03-28T06:22:34.281Z,71.18
2019-03-28T06:25:06.611Z,68.30
2019-03-28T06:27:38.467Z,67.59
2019-03-28T06:30:12.958Z,67.42
2019-03-28T06:32:44.763Z,67.50
2019-03-28T06:35:16.735Z,67.70
2019-03-28T06:37:51.307Z,69.37
2019-03-28T06:40:22.300Z,67.93
2019-03-28T06:42:54.239Z,66.77
2019-03-28T06:45:26.247Z,66.90
2019-03-28T06:47:58.038Z,66.22
2019-03-28T06:50:29.831Z,65.74
2019-03-28T06:53:01.931Z,66.11
2019-03-28T06:55:36.874Z,68.37
2019-03-28T06:58:08.690Z,67.98
2019-03-28T07:00:40.486Z,67.19
2019-03-28T07:03:12.923Z,66.44
2019-03-28T07:05:44.871Z,66.02
2019-03-28T07:08:16.851Z,64.48
2019-03-28T07:10:48.938Z,66.27
2019-03-28T07:13:20.811Z,66.38
2019-03-28T07:15:52.801Z,66.16
2019-03-28T07:18:24.825Z,67.07
2019-03-28T07:20:56.936Z,66.28
2019-03-28T07:23:29.066Z,64.71
2019-03-28T07:26:00.906Z,65.47
2019-03-28T07:28:33.551Z,65.56
2019-03-28T07:31:05.897Z,63.33
2019-03-28T07:33:37.835Z,63.70
2019-03-28T07:36:09.810Z,64.83
2019-03-28T07:38:41.718Z,65.00
2019-03-28T07:41:16.367Z,64.66
2019-03-28T07:43:47.206Z,63.67
2019-03-28T07:46:20.261Z,61.71
2019-03-28T07:48:52.245Z,62.38
2019-03-28T07:51:24.065Z,62.71
2019-03-28T07:53:55.840Z,63.17
2019-03-28T07:56:27.667Z,60.08
2019-03-28T07:58:59.533Z,58.53
2019-03-28T08:01:31.422Z,57.33
2019-03-28T08:04:03.229Z,56.59
2019-03-28T08:06:48.781Z,56.76
2019-03-28T08:09:11.212Z,55.45
2019-03-28T08:11:43.189Z,55.74
2019-03-28T08:14:15.171Z,54.96
2019-03-28T08:16:47.080Z,56.60
2019-03-28T08:19:18.988Z,58.46
2019-03-28T08:21:51.040Z,56.85
2019-03-28T08:24:23.260Z,56.76
2019-03-28T08:26:55.075Z,54.47
2019-03-28T08:29:26.848Z,54.02
2019-03-28T08:31:59.579Z,52.57
2019-03-28T08:34:31.527Z,53.96
2019-03-28T08:37:03.973Z,53.39
2019-03-28T08:39:35.996Z,52.91
2019-03-28T08:42:07.982Z,52.01
2019-03-28T08:44:39.927Z,52.23
2019-03-28T08:47:11.968Z,52.63
2019-03-28T08:49:44.058Z,53.58
2019-03-28T08:52:15.912Z,54.41
2019-03-28T08:54:47.817Z,54.77
2019-03-28T08:57:19.687Z,52.25
2019-03-28T08:59:51.509Z,51.68
2019-03-28T09:02:23.369Z,50.16
2019-03-28T09:04:56.441Z,49.36
2019-03-28T09:07:28.405Z,49.00
2019-03-28T09:10:00.369Z,50.90
2019-03-28T09:12:35.142Z,51.18
2019-03-28T09:17:56.078Z,50.93
2019-03-28T09:20:28.292Z,49.83
2019-03-28T09:23:00.190Z,47.63
2019-03-28T09:25:32.026Z,49.52
2019-03-28T09:28:03.911Z,49.23
2019-03-28T09:30:49.742Z,46.81
2019-03-28T09:33:19.266Z,46.89
2019-03-28T09:35:51.497Z,46.96
2019-03-28T09:38:23.881Z,48.31
2019-03-28T09:40:55.927Z,46.87
2019-03-28T09:43:27.895Z,46.91
2019-03-28T09:46:00.573Z,46.83
2019-03-28T09:48:33.288Z,46.99
2019-03-28T09:51:05.276Z,46.39
2019-03-28T09:53:37.175Z,48.73
2019-03-28T09:56:09.051Z,46.05
2019-03-28T09:58:41.018Z,47.29
2019-03-28T10:01:13.213Z,45.87
2019-03-28T10:03:45.047Z,46.52
2019-03-28T10:06:16.878Z,45.55
2019-03-28T10:08:48.814Z,46.57
2019-03-28T10:11:20.684Z,46.36
2019-03-28T10:13:53.625Z,45.37
2019-03-28T10:16:25.589Z,45.45
2019-03-28T10:18:57.388Z,47.63
2019-03-28T10:21:29.285Z,47.31
2019-03-28T10:24:01.116Z,45.39
2019-03-28T10:26:33.036Z,47.42
2019-03-28T10:29:05.215Z,47.37
2019-03-28T10:31:37.163Z,44.88
2019-03-28T10:34:09.141Z,48.87
2019-03-28T10:36:41.186Z,48.14
2019-03-28T10:39:13.046Z,47.06
2019-03-28T10:41:45.141Z,47.06
2019-03-28T10:44:16.967Z,45.22
2019-03-28T10:46:48.867Z,43.53
2019-03-28T10:49:20.823Z,44.58
2019-03-28T10:51:52.975Z,44.89
2019-03-28T10:54:25.894Z,47.71
2019-03-28T10:56:58.177Z,44.30
2019-03-28T10:59:30.306Z,44.50
2019-03-28T11:02:02.188Z,43.60
2019-03-28T11:04:34.104Z,43.77
2019-03-28T11:07:06.153Z,44.01
2019-03-28T11:09:39.140Z,43.26
2019-03-28T11:12:11.081Z,40.79
2019-03-28T11:14:46.127Z,41.83
2019-03-28T11:17:16.543Z,42.68
2019-03-28T11:19:48.394Z,41.52
2019-03-28T11:22:20.407Z,41.82
2019-03-28T11:24:52.569Z,42.80
2019-03-28T11:27:24.558Z,42.71
2019-03-28T11:29:56.588Z,41.09
2019-03-28T11:32:28.494Z,40.37
2019-03-28T11:35:00.423Z,41.31
2019-03-28T11:37:32.322Z,40.28
2019-03-28T11:40:05.214Z,39.79
2019-03-28T11:42:37.096Z,41.72
2019-03-28T11:45:10.028Z,40.43
2019-03-28T11:47:42.285Z,42.54
2019-03-28T11:50:17.089Z,41.24
2019-03-28T11:52:48.476Z,43.19
2019-03-28T11:55:20.337Z,41.20
2019-03-28T11:57:52.273Z,42.47
2019-03-28T12:00:24.256Z,42.69
2019-03-28T12:02:56.247Z,43.11
2019-03-28T12:05:28.107Z,42.29
2019-03-28T12:07:59.934Z,41.99
2019-03-28T12:10:31.949Z,42.40
2019-03-28T12:13:03.926Z,42.10
2019-03-28T12:15:35.843Z,42.85
2019-03-28T12:18:07.839Z,41.80
2019-03-28T12:20:39.861Z,42.72
2019-03-28T12:23:11.720Z,41.96
2019-03-28T12:25:43.706Z,42.03
2019-03-28T12:28:17.545Z,42.04
2019-03-28T12:30:49.638Z,39.95
2019-03-28T12:33:21.644Z,41.32
2019-03-28T12:35:53.664Z,40.97
2019-03-28T12:38:25.603Z,41.84
2019-03-28T12:40:57.522Z,41.80
2019-03-28T12:43:29.468Z,43.12
2019-03-28T12:46:01.373Z,43.59
2019-03-28T12:48:33.221Z,45.56
2019-03-28T12:51:05.247Z,45.90
2019-03-28T12:53:37.407Z,45.47
2019-03-28T12:56:09.284Z,46.80
2019-03-28T12:58:41.304Z,47.16
2019-03-28T13:01:13.339Z,46.15
2019-03-28T13:03:46.439Z,48.39
2019-03-28T13:06:18.524Z,47.72
2019-03-28T13:08:50.425Z,47.63
2019-03-28T13:11:22.273Z,46.75
2019-03-28T13:13:55.413Z,47.39
2019-03-28T13:16:27.265Z,47.74
2019-03-28T13:18:59.126Z,45.37
2019-03-28T13:21:31.053Z,45.16
2019-03-28T13:24:03.078Z,46.84
2019-03-28T13:26:35.019Z,45.70
2019-03-28T13:29:07.199Z,45.96
2019-03-28T13:31:39.099Z,46.92
2019-03-28T13:34:11.106Z,46.89
2019-03-28T13:36:43.031Z,46.74
2019-03-28T13:39:14.899Z,46.59
2019-03-28T13:41:46.749Z,46.55
2019-03-28T13:44:18.581Z,45.21
2019-03-28T13:46:50.605Z,45.27
2019-03-28T13:49:22.712Z,44.98
2019-03-28T13:51:54.767Z,45.20
2019-03-28T13:54:26.724Z,46.95
2019-03-28T13:56:58.580Z,45.75
2019-03-28T13:59:31.103Z,46.20
2019-03-28T14:02:06.713Z,46.80
2019-03-28T14:04:37.716Z,47.31
2019-03-28T14:07:09.615Z,47.02
2019-03-28T14:09:42.536Z,46.97
2019-03-28T14:12:14.549Z,48.48
2019-03-28T14:14:46.438Z,48.43
2019-03-28T14:17:18.265Z,48.78
2019-03-28T14:19:50.304Z,49.52
2019-03-28T14:22:22.224Z,48.93
2019-03-28T14:24:54.156Z,48.73
2019-03-28T14:27:26.086Z,47.37
2019-03-28T14:29:58.156Z,46.76
2019-03-28T14:32:32.963Z,48.94
2019-03-28T14:35:03.682Z,48.12
2019-03-28T14:37:35.588Z,47.83
2019-03-28T14:40:08.868Z,47.66
2019-03-28T14:42:41.261Z,47.83
2019-03-28T14:45:13.991Z,48.35
2019-03-28T14:47:46.177Z,46.97
2019-03-28T14:50:32.870Z,47.16
2019-03-28T14:53:05.155Z,46.96
2019-03-28T14:55:38.327Z,46.55
2019-03-28T14:58:10.433Z,46.57
2019-03-28T15:00:48.289Z,46.70
2019-03-28T15:03:26.256Z,45.31
2019-03-28T15:05:54.219Z,46.87
2019-03-28T15:08:26.145Z,48.51
2019-03-28T15:10:58.189Z,46.61
2019-03-28T15:13:30.090Z,47.70
2019-03-28T15:16:02.227Z,48.32
2019-03-28T15:18:34.251Z,48.01
2019-03-28T15:21:06.320Z,47.21
2019-03-28T15:23:38.453Z,47.20
2019-03-28T15:26:10.296Z,47.01
2019-03-28T15:28:42.331Z,46.49
2019-03-28T15:31:14.350Z,48.10
2019-03-28T15:33:46.212Z,47.86
2019-03-28T15:36:18.169Z,47.58
2019-03-28T15:38:50.082Z,47.52
2019-03-28T15:41:23.371Z,47.51
2019-03-28T15:43:55.278Z,46.70
2019-03-28T15:46:27.550Z,47.61
2019-03-28T15:48:59.391Z,47.46
2019-03-28T15:51:31.438Z,47.77
2019-03-28T15:54:03.484Z,46.85
2019-03-28T15:56:35.508Z,47.27
2019-03-28T15:59:08.451Z,47.18
2019-03-28T16:01:40.521Z,47.19
2019-03-28T16:04:13.648Z,46.55
2019-03-28T16:06:45.627Z,46.32
2019-03-28T16:09:18.785Z,46.80
2019-03-28T16:12:02.064Z,48.33
2019-03-28T16:14:24.603Z,48.15
2019-03-28T16:16:56.797Z,47.88
2019-03-28T16:19:28.816Z,47.78
2019-03-28T16:22:03.934Z,46.46
2019-03-28T16:24:34.371Z,48.03
2019-03-28T16:27:06.495Z,48.19
2019-03-28T16:29:38.484Z,48.45
2019-03-28T16:32:10.401Z,47.54
2019-03-28T16:34:43.572Z,48.44
2019-03-28T16:37:15.616Z,49.22
2019-03-28T16:39:49.901Z,48.80
2019-03-28T16:42:21.183Z,49.14
2019-03-28T16:44:53.245Z,49.33
2019-03-28T16:47:25.329Z,48.88
2019-03-28T16:49:58.413Z,48.79
2019-03-28T16:52:30.258Z,49.36
2019-03-28T16:55:02.177Z,49.43
2019-03-28T16:57:35.344Z,49.61
2019-03-28T17:00:11.375Z,50.22
2019-03-28T17:02:43.972Z,50.03
2019-03-28T17:05:16.159Z,50.07
2019-03-28T17:07:48.653Z,51.43
2019-03-28T17:10:47.039Z,51.25
2019-03-28T17:13:20.485Z,51.35
2019-03-28T17:15:52.486Z,51.37
2019-03-28T17:18:25.278Z,51.52
2019-03-28T17:20:57.289Z,51.87
2019-03-28T17:23:29.385Z,52.44
2019-03-28T17:26:01.395Z,52.32
2019-03-28T17:28:33.539Z,52.32
2019-03-28T17:31:05.559Z,52.32
2019-03-28T17:33:37.670Z,52.90
2019-03-28T17:36:09.705Z,53.35
2019-03-28T17:38:41.623Z,53.45
2019-03-28T17:41:13.638Z,53.30
2019-03-28T17:43:45.490Z,54.17
2019-03-28T17:46:18.373Z,54.38
2019-03-28T17:48:50.645Z,55.15
2019-03-28T17:51:22.833Z,55.77
2019-03-28T17:53:56.287Z,55.19
2019-03-28T17:56:28.294Z,55.35
2019-03-28T17:59:00.117Z,55.44
2019-03-28T18:01:31.994Z,55.54
2019-03-28T18:04:03.906Z,55.29
2019-03-28T18:06:36.041Z,55.16
2019-03-28T18:09:09.644Z,55.66
2019-03-28T18:11:41.770Z,56.08
2019-03-28T18:14:13.723Z,56.61
2019-03-28T18:16:45.681Z,56.89
2019-03-28T18:19:17.614Z,57.07
2019-03-28T18:22:02.398Z,57.86
2019-03-28T18:24:23.523Z,57.59
2019-03-28T18:26:55.377Z,58.97
2019-03-28T18:29:27.693Z,58.87
2019-03-28T18:32:00.025Z,59.86
2019-03-28T18:34:32.922Z,59.82
2019-03-28T18:37:04.805Z,60.25
2019-03-28T18:39:36.693Z,61.58
2019-03-28T18:42:08.631Z,62.12
2019-03-28T18:44:41.676Z,62.75
2019-03-28T18:47:13.747Z,62.70
2019-03-28T18:49:45.724Z,63.32
2019-03-28T18:52:17.579Z,64.02
2019-03-28T18:54:49.470Z,63.72
2019-03-28T18:57:21.491Z,63.63
2019-03-28T18:59:53.575Z,63.59
2019-03-28T19:02:25.409Z,64.38
2019-03-28T19:04:57.338Z,64.97
2019-03-28T19:07:29.247Z,65.08
2019-03-28T19:10:01.086Z,65.33
2019-03-28T19:12:33.123Z,65.17
2019-03-28T19:15:06.288Z,66.24
2019-03-28T19:17:38.547Z,66.25
2019-03-28T19:20:12.114Z,67.21
2019-03-28T19:22:44.178Z,66.78
2019-03-28T19:25:18.315Z,67.66
2019-03-28T19:27:50.354Z,67.65
2019-03-28T19:30:32.925Z,66.75
2019-03-28T19:33:07.001Z,67.03
2019-03-28T19:35:40.790Z,67.49
2019-03-28T19:38:13.157Z,68.46
2019-03-28T19:40:45.245Z,68.26
2019-03-28T19:43:20.754Z,65.77
2019-03-28T19:45:50.721Z,66.47
2019-03-28T19:48:22.828Z,66.06
2019-03-28T19:50:55.733Z,67.92
2019-03-28T19:53:27.633Z,68.19
2019-03-28T19:55:59.696Z,68.50
2019-03-28T19:58:34.872Z,66.77
2019-03-28T20:01:06.146Z,66.49
2019-03-28T20:03:38.027Z,66.82
2019-03-28T20:06:21.628Z,68.39
2019-03-28T20:08:47.002Z,67.87
2019-03-28T20:11:18.946Z,68.44
2019-03-28T20:13:52.055Z,67.84
2019-03-28T20:16:24.038Z,67.09
2019-03-28T20:18:56.616Z,66.49
2019-03-28T20:21:28.541Z,68.37
2019-03-28T20:24:00.392Z,68.53
2019-03-28T20:26:32.234Z,69.03
2019-03-28T20:29:04.412Z,68.75
2019-03-28T20:31:36.427Z,69.17
2019-03-28T20:34:08.704Z,69.03
2019-03-28T20:36:43.837Z,68.45
2019-03-28T20:39:14.600Z,68.91
2019-03-28T20:41:46.516Z,68.23
2019-03-28T20:44:18.974Z,68.16
2019-03-28T20:46:51.133Z,68.01
2019-03-28T20:49:23.268Z,69.82
2019-03-28T20:51:55.346Z,69.99
2019-03-28T20:54:27.220Z,70.02
2019-03-28T20:56:59.274Z,70.68
2019-03-28T20:59:31.501Z,69.85
2019-03-28T21:02:05.865Z,69.08
2019-03-28T21:04:39.328Z,69.92
2019-03-28T21:07:11.513Z,69.81
2019-03-28T21:09:43.704Z,69.34
2019-03-28T21:12:15.801Z,70.26
2019-03-28T21:14:48.097Z,70.15
2019-03-28T21:17:20.135Z,70.76
2019-03-28T21:19:52.023Z,70.17
2019-03-28T21:22:24.118Z,70.67
2019-03-28T21:24:56.204Z,70.75
2019-03-28T21:27:28.827Z,70.20
2019-03-28T21:30:00.796Z,70.39
2019-03-28T21:32:32.706Z,69.89
2019-03-28T21:35:04.893Z,70.02
2019-03-28T21:37:36.711Z,68.72
2019-03-28T21:40:09.315Z,69.32
2019-03-28T21:42:41.314Z,69.68
2019-03-28T21:45:14.948Z,70.93
2019-03-28T21:47:47.163Z,70.58
2019-03-28T21:50:19.126Z,71.54
2019-03-28T21:52:51.041Z,71.70
2019-03-28T21:55:23.092Z,72.25
2019-03-28T21:57:55.158Z,71.98
2019-03-28T22:00:27.129Z,71.63
2019-03-28T22:02:59.065Z,71.89
2019-03-28T22:05:31.091Z,72.36
2019-03-28T22:08:03.131Z,71.66
2019-03-28T22:10:35.169Z,72.48
2019-03-28T22:13:07.445Z,72.34
2019-03-28T22:15:40.242Z,72.82
2019-03-28T22:18:12.280Z,72.58
2019-03-28T22:20:44.369Z,71.40
2019-03-28T22:23:16.434Z,72.32
2019-03-28T22:25:48.475Z,72.19
2019-03-28T22:28:20.349Z,72.28
2019-03-28T22:30:52.334Z,70.73
2019-03-28T22:33:24.169Z,71.56
2019-03-28T22:35:56.043Z,71.42
2019-03-28T22:38:28.005Z,72.08
2019-03-28T22:41:00.007Z,71.94
2019-03-28T22:43:32.964Z,72.46
2019-03-28T22:46:05.145Z,73.70
2019-03-28T22:48:37.093Z,73.78
2019-03-28T22:51:09.104Z,72.52
2019-03-28T22:53:42.668Z,72.28
2019-03-28T22:56:14.629Z,72.65
2019-03-28T22:58:46.631Z,71.97
2019-03-28T23:01:18.713Z,73.15
2019-03-28T23:03:52.344Z,72.14
2019-03-28T23:06:24.292Z,73.45
2019-03-28T23:08:56.136Z,72.33
2019-03-28T23:11:28.216Z,70.99
2019-03-28T23:14:00.207Z,71.23
2019-03-28T23:16:32.058Z,71.41
2019-03-28T23:19:04.315Z,71.97
2019-03-28T23:21:36.135Z,70.50
2019-03-28T23:24:08.068Z,73.04
2019-03-28T23:26:39.979Z,72.90
2019-03-28T23:29:11.932Z,73.30
2019-03-28T23:31:44.130Z,71.80
2019-03-28T23:34:16.119Z,72.43
2019-03-28T23:36:47.992Z,72.92
2019-03-28T23:39:21.037Z,72.28
2019-03-28T23:41:52.929Z,71.35
2019-03-28T23:44:24.859Z,70.97
2019-03-28T23:46:56.950Z,70.88
2019-03-28T23:49:28.953Z,72.48
2019-03-28T23:52:02.067Z,72.98
2019-03-28T23:54:34.064Z,71.68
2019-03-28T23:57:05.984Z,72.48
2019-03-28T23:59:37.968Z,71.94
